sensor_id;sensor_type;location;lat;lon;timestamp;pressure;altitude;pressure_sealevel;temperature;humidity
49529;BME280;35423;37.320;-121.762;2023-10-08T00:00:28;99338.54;;;54.62;2.50
49529;BME280;35423;37.320;-121.762;2023-10-08T00:02:53;99333.53;;;54.73;2.44
49529;BME280;35423;37.320;-121.762;2023-10-08T00:05:20;99333.95;;;54.55;2.52
49529;BME280;35423;37.320;-121.762;2023-10-08T00:07:45;99334.22;;;54.61;2.61
49529;BME280;35423;37.320;-121.762;2023-10-08T00:10:13;99333.96;;;54.11;2.72
49529;BME280;35423;37.320;-121.762;2023-10-08T00:12:38;99331.59;;;53.65;2.87
49529;BME280;35423;37.320;-121.762;2023-10-08T00:15:05;99329.64;;;52.69;2.96
49529;BME280;35423;37.320;-121.762;2023-10-08T00:17:30;99325.72;;;52.98;3.11
49529;BME280;35423;37.320;-121.762;2023-10-08T00:20:05;99325.90;;;52.54;3.25
49529;BME280;35423;37.320;-121.762;2023-10-08T00:22:33;99323.95;;;51.94;3.42
49529;BME280;35423;37.320;-121.762;2023-10-08T00:25:03;99321.40;;;51.62;3.60
49529;BME280;35423;37.320;-121.762;2023-10-08T00:27:29;99324.96;;;51.29;3.76
49529;BME280;35423;37.320;-121.762;2023-10-08T00:29:54;99323.11;;;50.81;3.88
49529;BME280;35423;37.320;-121.762;2023-10-08T00:32:25;99326.24;;;50.67;3.95
49529;BME280;35423;37.320;-121.762;2023-10-08T00:34:48;99325.44;;;50.30;4.04
49529;BME280;35423;37.320;-121.762;2023-10-08T00:37:14;99327.18;;;50.17;4.10
49529;BME280;35423;37.320;-121.762;2023-10-08T00:39:47;99330.03;;;50.31;4.24
49529;BME280;35423;37.320;-121.762;2023-10-08T00:42:15;99330.76;;;49.23;4.39
49529;BME280;35423;37.320;-121.762;2023-10-08T00:44:41;99330.47;;;49.66;4.50
49529;BME280;35423;37.320;-121.762;2023-10-08T00:47:16;99329.31;;;48.84;4.56
49529;BME280;35423;37.320;-121.762;2023-10-08T00:49:45;99329.60;;;49.09;4.66
49529;BME280;35423;37.320;-121.762;2023-10-08T00:52:13;99326.31;;;48.87;4.69
49529;BME280;35423;37.320;-121.762;2023-10-08T00:54:36;99329.28;;;48.57;4.76
49529;BME280;35423;37.320;-121.762;2023-10-08T00:57:01;99328.99;;;48.27;4.82
49529;BME280;35423;37.320;-121.762;2023-10-08T00:59:29;99329.97;;;48.79;4.95
49529;BME280;35423;37.320;-121.762;2023-10-08T01:01:57;99331.58;;;48.79;5.06
49529;BME280;35423;37.320;-121.762;2023-10-08T01:04:25;99331.41;;;48.30;5.21
49529;BME280;35423;37.320;-121.762;2023-10-08T01:06:51;99334.99;;;48.04;5.36
49529;BME280;35423;37.320;-121.762;2023-10-08T01:09:16;99335.26;;;47.33;5.50
49529;BME280;35423;37.320;-121.762;2023-10-08T01:11:41;99337.03;;;48.02;5.58
49529;BME280;35423;37.320;-121.762;2023-10-08T01:14:06;99337.94;;;46.82;5.70
49529;BME280;35423;37.320;-121.762;2023-10-08T01:16:32;99338.40;;;47.45;5.57
49529;BME280;35423;37.320;-121.762;2023-10-08T01:19:02;99337.29;;;46.34;5.89
49529;BME280;35423;37.320;-121.762;2023-10-08T01:21:32;99339.84;;;47.08;5.97
49529;BME280;35423;37.320;-121.762;2023-10-08T01:23:54;99338.05;;;45.87;6.09
49529;BME280;35423;37.320;-121.762;2023-10-08T01:26:28;99334.85;;;46.70;6.12
49529;BME280;35423;37.320;-121.762;2023-10-08T01:28:54;99337.85;;;46.45;6.25
49529;BME280;35423;37.320;-121.762;2023-10-08T01:31:26;99337.48;;;46.55;6.31
49529;BME280;35423;37.320;-121.762;2023-10-08T01:33:47;99338.42;;;46.13;6.43
49529;BME280;35423;37.320;-121.762;2023-10-08T01:36:15;99341.24;;;45.98;6.52
49529;BME280;35423;37.320;-121.762;2023-10-08T01:38:41;99342.76;;;45.25;6.65
49529;BME280;35423;37.320;-121.762;2023-10-08T01:41:06;99345.77;;;45.46;6.69
49529;BME280;35423;37.320;-121.762;2023-10-08T01:43:32;99345.40;;;45.41;6.82
49529;BME280;35423;37.320;-121.762;2023-10-08T01:46:01;99344.68;;;46.02;6.92
49529;BME280;35423;37.320;-121.762;2023-10-08T01:48:25;99346.06;;;45.50;7.10
49529;BME280;35423;37.320;-121.762;2023-10-08T01:50:54;99352.33;;;45.28;7.24
49529;BME280;35423;37.320;-121.762;2023-10-08T01:53:16;99353.62;;;45.20;7.41
49529;BME280;35423;37.320;-121.762;2023-10-08T01:55:45;99356.32;;;45.14;7.50
49529;BME280;35423;37.320;-121.762;2023-10-08T01:58:13;99361.80;;;44.93;7.52
49529;BME280;35423;37.320;-121.762;2023-10-08T02:00:41;99362.36;;;44.73;7.55
49529;BME280;35423;37.320;-121.762;2023-10-08T02:03:06;99363.17;;;44.22;7.63
49529;BME280;35423;37.320;-121.762;2023-10-08T02:05:36;99365.29;;;44.48;7.62
49529;BME280;35423;37.320;-121.762;2023-10-08T02:08:09;99366.10;;;44.31;7.64
49529;BME280;35423;37.320;-121.762;2023-10-08T02:10:41;99369.16;;;44.36;7.72
49529;BME280;35423;37.320;-121.762;2023-10-08T02:13:11;99370.29;;;43.43;7.84
49529;BME280;35423;37.320;-121.762;2023-10-08T02:15:50;99373.69;;;44.24;7.93
49529;BME280;35423;37.320;-121.762;2023-10-08T02:18:26;99376.74;;;43.98;8.09
49529;BME280;35423;37.320;-121.762;2023-10-08T02:21:00;99379.52;;;43.47;8.17
49529;BME280;35423;37.320;-121.762;2023-10-08T02:23:33;99381.59;;;43.21;8.33
49529;BME280;35423;37.320;-121.762;2023-10-08T02:26:00;99382.03;;;43.08;8.43
49529;BME280;35423;37.320;-121.762;2023-10-08T02:28:26;99379.98;;;43.09;8.58
49529;BME280;35423;37.320;-121.762;2023-10-08T02:30:53;99381.29;;;43.17;8.63
49529;BME280;35423;37.320;-121.762;2023-10-08T02:33:19;99384.15;;;43.01;8.70
49529;BME280;35423;37.320;-121.762;2023-10-08T02:35:46;99378.84;;;42.51;8.73
49529;BME280;35423;37.320;-121.762;2023-10-08T02:38:11;99377.81;;;42.26;8.78
49529;BME280;35423;37.320;-121.762;2023-10-08T02:40:37;99377.31;;;42.63;8.81
49529;BME280;35423;37.320;-121.762;2023-10-08T02:43:10;99378.65;;;42.14;8.95
49529;BME280;35423;37.320;-121.762;2023-10-08T02:45:41;99379.06;;;42.14;9.01
49529;BME280;35423;37.320;-121.762;2023-10-08T02:48:07;99379.54;;;41.78;9.08
49529;BME280;35423;37.320;-121.762;2023-10-08T02:50:32;99381.30;;;42.17;9.10
49529;BME280;35423;37.320;-121.762;2023-10-08T02:53:01;99385.06;;;42.04;9.13
49529;BME280;35423;37.320;-121.762;2023-10-08T02:55:30;99387.38;;;41.88;9.12
49529;BME280;35423;37.320;-121.762;2023-10-08T02:57:56;99386.69;;;42.00;9.20
49529;BME280;35423;37.320;-121.762;2023-10-08T03:00:27;99387.22;;;42.03;9.22
49529;BME280;35423;37.320;-121.762;2023-10-08T03:02:56;99388.19;;;41.80;9.29
49529;BME280;35423;37.320;-121.762;2023-10-08T03:05:21;99389.85;;;41.78;9.28
49529;BME280;35423;37.320;-121.762;2023-10-08T03:07:45;99392.90;;;41.64;9.33
49529;BME280;35423;37.320;-121.762;2023-10-08T03:10:20;99394.04;;;41.53;9.39
49529;BME280;35423;37.320;-121.762;2023-10-08T03:12:46;99395.92;;;41.74;9.53
49529;BME280;35423;37.320;-121.762;2023-10-08T03:15:17;99397.83;;;41.35;9.59
49529;BME280;35423;37.320;-121.762;2023-10-08T03:17:46;99396.32;;;40.86;9.70
49529;BME280;35423;37.320;-121.762;2023-10-08T03:20:26;99398.37;;;40.24;9.81
49529;BME280;35423;37.320;-121.762;2023-10-08T03:22:42;99398.32;;;41.08;9.90
49529;BME280;35423;37.320;-121.762;2023-10-08T03:25:07;99401.13;;;40.94;9.97
49529;BME280;35423;37.320;-121.762;2023-10-08T03:27:33;99406.37;;;40.64;10.05
49529;BME280;35423;37.320;-121.762;2023-10-08T03:30:02;99406.65;;;39.99;10.08
49529;BME280;35423;37.320;-121.762;2023-10-08T03:32:29;99411.58;;;40.53;10.13
49529;BME280;35423;37.320;-121.762;2023-10-08T03:34:54;99413.83;;;40.39;10.19
49529;BME280;35423;37.320;-121.762;2023-10-08T03:37:21;99415.74;;;40.02;10.25
49529;BME280;35423;37.320;-121.762;2023-10-08T03:39:49;99416.64;;;39.89;10.29
49529;BME280;35423;37.320;-121.762;2023-10-08T03:42:14;99419.32;;;40.02;10.32
49529;BME280;35423;37.320;-121.762;2023-10-08T03:44:46;99417.50;;;40.00;10.33
49529;BME280;35423;37.320;-121.762;2023-10-08T03:47:11;99420.81;;;39.71;10.34
49529;BME280;35423;37.320;-121.762;2023-10-08T03:49:38;99423.11;;;39.60;10.38
49529;BME280;35423;37.320;-121.762;2023-10-08T03:52:03;99425.74;;;39.92;10.42
49529;BME280;35423;37.320;-121.762;2023-10-08T03:54:31;99431.02;;;39.21;10.57
49529;BME280;35423;37.320;-121.762;2023-10-08T03:56:57;99431.44;;;39.63;10.63
49529;BME280;35423;37.320;-121.762;2023-10-08T03:59:25;99433.80;;;39.51;10.71
49529;BME280;35423;37.320;-121.762;2023-10-08T04:01:55;99434.55;;;39.70;10.72
49529;BME280;35423;37.320;-121.762;2023-10-08T04:04:20;99437.56;;;38.84;10.83
49529;BME280;35423;37.320;-121.762;2023-10-08T04:06:46;99440.58;;;39.32;10.86
49529;BME280;35423;37.320;-121.762;2023-10-08T04:09:12;99442.01;;;38.65;10.99
49529;BME280;35423;37.320;-121.762;2023-10-08T04:11:42;99444.35;;;39.19;10.95
49529;BME280;35423;37.320;-121.762;2023-10-08T04:14:08;99446.28;;;38.02;11.11
49529;BME280;35423;37.320;-121.762;2023-10-08T04:16:35;99449.65;;;39.47;11.12
49529;BME280;35423;37.320;-121.762;2023-10-08T04:19:01;99450.71;;;38.58;11.21
49529;BME280;35423;37.320;-121.762;2023-10-08T04:21:29;99450.99;;;39.22;11.21
49529;BME280;35423;37.320;-121.762;2023-10-08T04:24:00;99449.12;;;37.76;11.28
49529;BME280;35423;37.320;-121.762;2023-10-08T04:26:25;99449.91;;;38.96;11.22
49529;BME280;35423;37.320;-121.762;2023-10-08T04:28:52;99449.73;;;38.08;11.33
49529;BME280;35423;37.320;-121.762;2023-10-08T04:31:20;99450.76;;;37.82;11.38
49529;BME280;35423;37.320;-121.762;2023-10-08T04:33:48;99451.97;;;37.71;11.47
49529;BME280;35423;37.320;-121.762;2023-10-08T04:36:15;99453.03;;;38.63;11.47
49529;BME280;35423;37.320;-121.762;2023-10-08T04:38:43;99457.85;;;37.92;11.57
49529;BME280;35423;37.320;-121.762;2023-10-08T04:41:11;99460.30;;;37.73;11.55
49529;BME280;35423;37.320;-121.762;2023-10-08T04:43:41;99461.90;;;37.81;11.66
49529;BME280;35423;37.320;-121.762;2023-10-08T04:46:06;99464.14;;;38.05;11.66
49529;BME280;35423;37.320;-121.762;2023-10-08T04:48:35;99462.44;;;38.03;11.74
49529;BME280;35423;37.320;-121.762;2023-10-08T04:51:07;99465.22;;;38.17;11.78
49529;BME280;35423;37.320;-121.762;2023-10-08T04:53:36;99463.87;;;37.69;11.87
49529;BME280;35423;37.320;-121.762;2023-10-08T04:55:59;99464.03;;;38.18;11.85
49529;BME280;35423;37.320;-121.762;2023-10-08T04:58:26;99463.59;;;38.01;11.95
49529;BME280;35423;37.320;-121.762;2023-10-08T05:00:58;99463.53;;;37.79;11.95
49529;BME280;35423;37.320;-121.762;2023-10-08T05:03:28;99467.29;;;37.75;12.10
49529;BME280;35423;37.320;-121.762;2023-10-08T05:05:51;99465.65;;;37.69;12.12
49529;BME280;35423;37.320;-121.762;2023-10-08T05:08:19;99466.63;;;37.46;12.20
49529;BME280;35423;37.320;-121.762;2023-10-08T05:10:44;99466.81;;;37.44;12.19
49529;BME280;35423;37.320;-121.762;2023-10-08T05:13:11;99468.46;;;37.32;12.30
49529;BME280;35423;37.320;-121.762;2023-10-08T05:15:45;99467.33;;;37.48;12.44
49529;BME280;35423;37.320;-121.762;2023-10-08T05:18:14;99467.98;;;37.10;12.58
49529;BME280;35423;37.320;-121.762;2023-10-08T05:20:40;99471.25;;;37.15;12.60
49529;BME280;35423;37.320;-121.762;2023-10-08T05:23:06;99474.25;;;36.99;12.67
49529;BME280;35423;37.320;-121.762;2023-10-08T05:25:35;99476.21;;;35.75;12.68
49529;BME280;35423;37.320;-121.762;2023-10-08T05:28:01;99475.30;;;37.01;12.47
49529;BME280;35423;37.320;-121.762;2023-10-08T05:30:30;99474.32;;;37.50;12.53
49529;BME280;35423;37.320;-121.762;2023-10-08T05:32:56;99472.41;;;37.18;12.66
49529;BME280;35423;37.320;-121.762;2023-10-08T05:35:29;99472.41;;;36.84;12.72
49529;BME280;35423;37.320;-121.762;2023-10-08T05:37:58;99470.09;;;36.95;12.79
49529;BME280;35423;37.320;-121.762;2023-10-08T05:40:27;99468.78;;;36.84;12.88
49529;BME280;35423;37.320;-121.762;2023-10-08T05:42:54;99468.12;;;36.65;13.00
49529;BME280;35423;37.320;-121.762;2023-10-08T05:45:22;99471.72;;;36.33;12.94
49529;BME280;35423;37.320;-121.762;2023-10-08T05:47:47;99470.87;;;36.75;13.02
49529;BME280;35423;37.320;-121.762;2023-10-08T05:50:15;99471.46;;;36.75;13.08
49529;BME280;35423;37.320;-121.762;2023-10-08T05:52:41;99471.97;;;36.58;13.17
49529;BME280;35423;37.320;-121.762;2023-10-08T05:55:09;99474.33;;;36.31;13.22
49529;BME280;35423;37.320;-121.762;2023-10-08T05:57:42;99473.29;;;36.47;13.28
49529;BME280;35423;37.320;-121.762;2023-10-08T06:00:08;99474.59;;;36.06;13.23
49529;BME280;35423;37.320;-121.762;2023-10-08T06:02:34;99473.74;;;36.37;13.31
49529;BME280;35423;37.320;-121.762;2023-10-08T06:05:09;99475.61;;;36.23;13.40
49529;BME280;35423;37.320;-121.762;2023-10-08T06:07:33;99477.23;;;36.25;13.50
49529;BME280;35423;37.320;-121.762;2023-10-08T06:10:04;99478.49;;;36.12;13.56
49529;BME280;35423;37.320;-121.762;2023-10-08T06:12:32;99484.19;;;36.21;13.63
49529;BME280;35423;37.320;-121.762;2023-10-08T06:14:59;99486.10;;;35.93;13.58
49529;BME280;35423;37.320;-121.762;2023-10-08T06:17:25;99488.60;;;35.83;13.59
49529;BME280;35423;37.320;-121.762;2023-10-08T06:19:54;99490.51;;;35.98;13.65
49529;BME280;35423;37.320;-121.762;2023-10-08T06:22:19;99492.88;;;35.60;13.66
49529;BME280;35423;37.320;-121.762;2023-10-08T06:24:44;99495.22;;;35.77;13.70
49529;BME280;35423;37.320;-121.762;2023-10-08T06:27:13;99495.70;;;35.33;13.80
49529;BME280;35423;37.320;-121.762;2023-10-08T06:29:39;99495.78;;;35.20;13.84
49529;BME280;35423;37.320;-121.762;2023-10-08T06:32:06;99494.01;;;35.08;13.89
49529;BME280;35423;37.320;-121.762;2023-10-08T06:34:33;99495.80;;;34.97;13.94
49529;BME280;35423;37.320;-121.762;2023-10-08T06:36:59;99495.77;;;34.92;13.95
49529;BME280;35423;37.320;-121.762;2023-10-08T06:39:25;99497.84;;;34.79;14.01
49529;BME280;35423;37.320;-121.762;2023-10-08T06:41:53;99499.57;;;35.46;14.00
49529;BME280;35423;37.320;-121.762;2023-10-08T06:44:19;99499.64;;;34.62;14.07
49529;BME280;35423;37.320;-121.762;2023-10-08T06:46:46;99497.31;;;35.11;14.05
49529;BME280;35423;37.320;-121.762;2023-10-08T06:49:13;99496.63;;;34.46;14.15
49529;BME280;35423;37.320;-121.762;2023-10-08T06:51:38;99495.85;;;34.70;14.16
49529;BME280;35423;37.320;-121.762;2023-10-08T06:54:03;99493.00;;;34.05;14.28
49529;BME280;35423;37.320;-121.762;2023-10-08T06:56:28;99492.27;;;34.74;14.26
49529;BME280;35423;37.320;-121.762;2023-10-08T06:58:57;99489.19;;;34.33;14.39
49529;BME280;35423;37.320;-121.762;2023-10-08T07:01:31;99492.11;;;33.33;14.40
49529;BME280;35423;37.320;-121.762;2023-10-08T07:03:53;99490.63;;;34.11;14.20
49529;BME280;35423;37.320;-121.762;2023-10-08T07:06:19;99490.32;;;34.45;14.28
49529;BME280;35423;37.320;-121.762;2023-10-08T07:08:48;99493.78;;;33.95;14.43
49529;BME280;35423;37.320;-121.762;2023-10-08T07:11:13;99494.31;;;33.95;14.41
49529;BME280;35423;37.320;-121.762;2023-10-08T07:13:40;99495.41;;;33.77;14.53
49529;BME280;35423;37.320;-121.762;2023-10-08T07:16:07;99495.99;;;33.99;14.58
49529;BME280;35423;37.320;-121.762;2023-10-08T07:18:35;99491.91;;;33.74;14.68
49529;BME280;35423;37.320;-121.762;2023-10-08T07:21:02;99491.06;;;33.48;14.63
49529;BME280;35423;37.320;-121.762;2023-10-08T07:23:33;99490.40;;;34.06;14.65
49529;BME280;35423;37.320;-121.762;2023-10-08T07:26:01;99489.95;;;33.85;14.61
49529;BME280;35423;37.320;-121.762;2023-10-08T07:28:31;99490.63;;;33.46;14.67
49529;BME280;35423;37.320;-121.762;2023-10-08T07:30:56;99491.85;;;33.97;14.59
49529;BME280;35423;37.320;-121.762;2023-10-08T07:33:43;99497.06;;;33.61;14.66
49529;BME280;35423;37.320;-121.762;2023-10-08T07:36:00;99494.03;;;33.51;14.55
49529;BME280;35423;37.320;-121.762;2023-10-08T07:38:27;99500.07;;;33.82;14.59
49529;BME280;35423;37.320;-121.762;2023-10-08T07:40:50;99501.34;;;34.23;14.67
49529;BME280;35423;37.320;-121.762;2023-10-08T07:43:36;99504.97;;;33.06;14.83
49529;BME280;35423;37.320;-121.762;2023-10-08T07:46:00;99508.72;;;33.33;14.81
49529;BME280;35423;37.320;-121.762;2023-10-08T07:48:29;99514.16;;;33.86;14.97
49529;BME280;35423;37.320;-121.762;2023-10-08T07:50:54;99520.29;;;33.56;15.09
49529;BME280;35423;37.320;-121.762;2023-10-08T07:53:27;99525.59;;;33.42;15.33
49529;BME280;35423;37.320;-121.762;2023-10-08T07:55:55;99532.75;;;33.49;15.19
49529;BME280;35423;37.320;-121.762;2023-10-08T07:58:23;99533.76;;;33.56;15.15
49529;BME280;35423;37.320;-121.762;2023-10-08T08:00:51;99536.55;;;33.19;15.12
49529;BME280;35423;37.320;-121.762;2023-10-08T08:03:16;99535.14;;;33.21;15.18
49529;BME280;35423;37.320;-121.762;2023-10-08T08:05:42;99532.36;;;33.20;15.15
49529;BME280;35423;37.320;-121.762;2023-10-08T08:08:12;99533.14;;;32.59;15.15
49529;BME280;35423;37.320;-121.762;2023-10-08T08:10:42;99535.09;;;33.05;15.21
49529;BME280;35423;37.320;-121.762;2023-10-08T08:13:07;99534.41;;;32.44;15.16
49529;BME280;35423;37.320;-121.762;2023-10-08T08:15:38;99540.93;;;32.93;15.16
49529;BME280;35423;37.320;-121.762;2023-10-08T08:18:07;99543.64;;;32.47;15.28
49529;BME280;35423;37.320;-121.762;2023-10-08T08:20:38;99548.24;;;32.69;15.37
49529;BME280;35423;37.320;-121.762;2023-10-08T08:23:02;99550.89;;;32.30;15.36
49529;BME280;35423;37.320;-121.762;2023-10-08T08:25:37;99550.78;;;32.55;15.32
49529;BME280;35423;37.320;-121.762;2023-10-08T08:27:55;99547.79;;;32.45;15.32
49529;BME280;35423;37.320;-121.762;2023-10-08T08:30:23;99546.98;;;32.55;15.24
49529;BME280;35423;37.320;-121.762;2023-10-08T08:32:49;99545.70;;;32.46;15.23
49529;BME280;35423;37.320;-121.762;2023-10-08T08:35:19;99547.26;;;32.40;15.23
49529;BME280;35423;37.320;-121.762;2023-10-08T08:37:45;99544.12;;;32.69;15.32
49529;BME280;35423;37.320;-121.762;2023-10-08T08:40:11;99541.34;;;32.13;15.34
49529;BME280;35423;37.320;-121.762;2023-10-08T08:42:37;99540.31;;;32.51;15.39
49529;BME280;35423;37.320;-121.762;2023-10-08T08:45:05;99537.55;;;31.80;15.35
49529;BME280;35423;37.320;-121.762;2023-10-08T08:47:30;99535.97;;;32.41;15.37
49529;BME280;35423;37.320;-121.762;2023-10-08T08:49:54;99536.48;;;32.35;15.38
49529;BME280;35423;37.320;-121.762;2023-10-08T08:52:29;99532.45;;;32.44;15.40
49529;BME280;35423;37.320;-121.762;2023-10-08T08:54:55;99533.36;;;32.37;15.51
49529;BME280;35423;37.320;-121.762;2023-10-08T08:57:22;99532.27;;;31.81;15.58
49529;BME280;35423;37.320;-121.762;2023-10-08T08:59:52;99529.94;;;31.69;15.46
49529;BME280;35423;37.320;-121.762;2023-10-08T09:02:14;99527.16;;;32.21;15.36
49529;BME280;35423;37.320;-121.762;2023-10-08T09:04:38;99527.61;;;32.11;15.40
49529;BME280;35423;37.320;-121.762;2023-10-08T09:07:04;99525.15;;;31.47;15.50
49529;BME280;35423;37.320;-121.762;2023-10-08T09:09:36;99523.72;;;31.87;15.59
49529;BME280;35423;37.320;-121.762;2023-10-08T09:11:59;99522.54;;;31.81;15.64
49529;BME280;35423;37.320;-121.762;2023-10-08T09:14:26;99527.58;;;31.70;15.70
49529;BME280;35423;37.320;-121.762;2023-10-08T09:16:57;99532.06;;;31.66;15.74
49529;BME280;35423;37.320;-121.762;2023-10-08T09:19:22;99530.22;;;31.50;15.83
49529;BME280;35423;37.320;-121.762;2023-10-08T09:24:21;99527.59;;;31.03;15.80
49529;BME280;35423;37.320;-121.762;2023-10-08T09:26:50;99529.58;;;31.56;15.77
49529;BME280;35423;37.320;-121.762;2023-10-08T09:29:21;99528.60;;;30.76;15.99
49529;BME280;35423;37.320;-121.762;2023-10-08T09:34:19;99522.95;;;30.73;15.98
49529;BME280;35423;37.320;-121.762;2023-10-08T09:36:40;99519.69;;;31.66;15.92
49529;BME280;35423;37.320;-121.762;2023-10-08T09:39:11;99517.75;;;30.47;15.91
49529;BME280;35423;37.320;-121.762;2023-10-08T09:41:43;99519.25;;;31.42;15.84
49529;BME280;35423;37.320;-121.762;2023-10-08T09:44:08;99518.44;;;30.83;15.87
49529;BME280;35423;37.320;-121.762;2023-10-08T09:46:34;99511.94;;;31.07;15.85
49529;BME280;35423;37.320;-121.762;2023-10-08T09:49:03;99512.51;;;30.98;15.90
49529;BME280;35423;37.320;-121.762;2023-10-08T09:51:24;99512.29;;;30.95;15.95
49529;BME280;35423;37.320;-121.762;2023-10-08T09:53:58;99507.37;;;31.04;16.04
49529;BME280;35423;37.320;-121.762;2023-10-08T09:56:29;99506.44;;;30.80;16.07
49529;BME280;35423;37.320;-121.762;2023-10-08T09:58:56;99508.80;;;31.00;16.06
49529;BME280;35423;37.320;-121.762;2023-10-08T10:01:34;99509.73;;;31.04;16.01
49529;BME280;35423;37.320;-121.762;2023-10-08T10:04:01;99510.53;;;30.54;16.16
49529;BME280;35423;37.320;-121.762;2023-10-08T10:06:26;99504.33;;;30.84;16.20
49529;BME280;35423;37.320;-121.762;2023-10-08T10:08:53;99503.23;;;30.72;16.36
49529;BME280;35423;37.320;-121.762;2023-10-08T10:11:17;99501.90;;;30.85;16.48
49529;BME280;35423;37.320;-121.762;2023-10-08T10:13:49;99500.69;;;30.71;16.66
49529;BME280;35423;37.320;-121.762;2023-10-08T10:16:16;99500.02;;;30.47;16.82
49529;BME280;35423;37.320;-121.762;2023-10-08T10:18:44;99501.18;;;30.43;16.88
49529;BME280;35423;37.320;-121.762;2023-10-08T10:23:38;99498.44;;;30.53;16.92
49529;BME280;35423;37.320;-121.762;2023-10-08T10:26:05;99499.91;;;30.01;16.82
49529;BME280;35423;37.320;-121.762;2023-10-08T10:28:26;99501.10;;;30.38;16.88
49529;BME280;35423;37.320;-121.762;2023-10-08T10:30:55;99501.77;;;30.53;16.87
49529;BME280;35423;37.320;-121.762;2023-10-08T10:36:04;99508.17;;;30.14;16.91
49529;BME280;35423;37.320;-121.762;2023-10-08T10:38:33;99507.75;;;30.52;17.02
49529;BME280;35423;37.320;-121.762;2023-10-08T10:41:03;99504.58;;;30.05;17.08
49529;BME280;35423;37.320;-121.762;2023-10-08T10:43:28;99504.04;;;30.20;17.16
49529;BME280;35423;37.320;-121.762;2023-10-08T10:46:02;99504.47;;;30.41;17.17
49529;BME280;35423;37.320;-121.762;2023-10-08T10:48:27;99508.12;;;30.17;17.34
49529;BME280;35423;37.320;-121.762;2023-10-08T10:50:53;99504.40;;;30.15;17.42
49529;BME280;35423;37.320;-121.762;2023-10-08T10:53:25;99509.58;;;30.10;17.34
49529;BME280;35423;37.320;-121.762;2023-10-08T10:55:51;99510.56;;;30.09;17.32
49529;BME280;35423;37.320;-121.762;2023-10-08T10:58:16;99505.17;;;29.74;17.37
49529;BME280;35423;37.320;-121.762;2023-10-08T11:00:45;99505.99;;;30.16;17.41
49529;BME280;35423;37.320;-121.762;2023-10-08T11:03:10;99504.11;;;29.79;17.38
49529;BME280;35423;37.320;-121.762;2023-10-08T11:05:41;99498.57;;;29.71;17.37
49529;BME280;35423;37.320;-121.762;2023-10-08T11:08:10;99494.36;;;29.61;17.43
49529;BME280;35423;37.320;-121.762;2023-10-08T11:10:36;99493.13;;;29.59;17.48
49529;BME280;35423;37.320;-121.762;2023-10-08T11:13:01;99490.94;;;29.82;17.55
49529;BME280;35423;37.320;-121.762;2023-10-08T11:15:29;99488.51;;;30.01;17.58
49529;BME280;35423;37.320;-121.762;2023-10-08T11:17:54;99484.49;;;29.43;17.56
49529;BME280;35423;37.320;-121.762;2023-10-08T11:20:23;99484.54;;;29.36;17.61
49529;BME280;35423;37.320;-121.762;2023-10-08T11:22:46;99480.73;;;29.78;17.67
49529;BME280;35423;37.320;-121.762;2023-10-08T11:25:22;99482.54;;;29.55;17.68
49529;BME280;35423;37.320;-121.762;2023-10-08T11:27:39;99481.79;;;29.22;17.73
49529;BME280;35423;37.320;-121.762;2023-10-08T11:30:06;99483.78;;;29.19;17.79
49529;BME280;35423;37.320;-121.762;2023-10-08T11:32:30;99483.98;;;29.63;17.86
49529;BME280;35423;37.320;-121.762;2023-10-08T11:34:59;99483.58;;;29.10;17.88
49529;BME280;35423;37.320;-121.762;2023-10-08T11:37:27;99485.27;;;29.05;17.92
49529;BME280;35423;37.320;-121.762;2023-10-08T11:39:49;99487.73;;;29.26;18.04
49529;BME280;35423;37.320;-121.762;2023-10-08T11:42:18;99489.58;;;29.00;17.98
49529;BME280;35423;37.320;-121.762;2023-10-08T11:44:43;99492.34;;;28.93;18.03
49529;BME280;35423;37.320;-121.762;2023-10-08T11:47:10;99488.76;;;28.97;17.95
49529;BME280;35423;37.320;-121.762;2023-10-08T11:49:39;99495.13;;;28.84;18.05
49529;BME280;35423;37.320;-121.762;2023-10-08T11:52:04;99496.40;;;28.81;18.11
49529;BME280;35423;37.320;-121.762;2023-10-08T11:54:30;99497.57;;;28.78;18.18
49529;BME280;35423;37.320;-121.762;2023-10-08T11:56:56;99502.62;;;29.10;18.13
49529;BME280;35423;37.320;-121.762;2023-10-08T11:59:21;99509.07;;;28.43;18.16
49529;BME280;35423;37.320;-121.762;2023-10-08T12:01:46;99510.43;;;29.31;18.26
49529;BME280;35423;37.320;-121.762;2023-10-08T12:04:14;99510.62;;;28.15;18.50
49529;BME280;35423;37.320;-121.762;2023-10-08T12:06:44;99513.28;;;28.98;18.51
49529;BME280;35423;37.320;-121.762;2023-10-08T12:09:08;99515.94;;;28.30;18.57
49529;BME280;35423;37.320;-121.762;2023-10-08T12:11:33;99515.74;;;28.78;18.61
49529;BME280;35423;37.320;-121.762;2023-10-08T12:14:00;99515.15;;;28.47;18.73
49529;BME280;35423;37.320;-121.762;2023-10-08T12:16:27;99517.94;;;28.46;18.76
49529;BME280;35423;37.320;-121.762;2023-10-08T12:18:51;99517.00;;;28.64;18.73
49529;BME280;35423;37.320;-121.762;2023-10-08T12:21:14;99518.10;;;28.69;18.71
49529;BME280;35423;37.320;-121.762;2023-10-08T12:23:43;99515.46;;;28.56;18.77
49529;BME280;35423;37.320;-121.762;2023-10-08T12:26:13;99512.28;;;28.03;18.84
49529;BME280;35423;37.320;-121.762;2023-10-08T12:28:40;99512.23;;;28.54;18.80
49529;BME280;35423;37.320;-121.762;2023-10-08T12:31:11;99513.01;;;28.26;18.88
49529;BME280;35423;37.320;-121.762;2023-10-08T12:33:36;99511.56;;;28.59;18.94
49529;BME280;35423;37.320;-121.762;2023-10-08T12:36:04;99511.32;;;27.82;19.04
49529;BME280;35423;37.320;-121.762;2023-10-08T12:38:31;99512.77;;;28.23;19.09
49529;BME280;35423;37.320;-121.762;2023-10-08T12:41:15;99513.23;;;28.69;19.06
49529;BME280;35423;37.320;-121.762;2023-10-08T12:43:41;99513.81;;;28.46;19.19